createdAt,value
2022-10-18T00:00:15.872Z,100.00
2022-10-18T00:03:05.301Z,100.00
2022-10-18T00:05:36.272Z,100.00
2022-10-18T00:08:06.061Z,100.00
2022-10-18T00:10:37.188Z,99.88
2022-10-18T00:13:07.357Z,99.90
2022-10-18T00:15:38.366Z,100.00
2022-10-18T00:18:09.365Z,100.00
2022-10-18T00:20:42.634Z,100.00
2022-10-18T00:23:14.438Z,100.00
2022-10-18T00:25:44.806Z,100.00
2022-10-18T00:28:16.656Z,100.00
2022-10-18T00:30:47.034Z,100.00
2022-10-18T00:33:17.749Z,100.00
2022-10-18T00:35:46.982Z,100.00
2022-10-18T00:38:15.661Z,100.00
2022-10-18T00:40:45.017Z,100.00
2022-10-18T00:43:19.343Z,100.00
2022-10-18T00:45:52.583Z,100.00
2022-10-18T00:48:23.069Z,100.00
2022-10-18T00:50:55.012Z,100.00
2022-10-18T00:53:24.611Z,100.00
2022-10-18T00:55:54.091Z,100.00
2022-10-18T00:58:23.705Z,100.00
2022-10-18T01:00:54.634Z,100.00
2022-10-18T01:03:24.649Z,100.00
2022-10-18T01:05:54.454Z,100.00
2022-10-18T01:08:34.897Z,100.00
2022-10-18T01:11:51.715Z,100.00
2022-10-18T01:15:02.994Z,100.00
2022-10-18T01:17:41.749Z,100.00
2022-10-18T01:20:31.060Z,100.00
2022-10-18T01:23:09.464Z,100.00
2022-10-18T01:26:18.782Z,100.00
2022-10-18T01:29:06.730Z,100.00
2022-10-18T01:32:04.921Z,100.00
2022-10-18T01:34:37.737Z,100.00
2022-10-18T01:37:14.923Z,100.00
2022-10-18T01:39:47.832Z,100.00
2022-10-18T01:42:21.307Z,100.00
2022-10-18T01:44:55.739Z,100.00
2022-10-18T01:47:29.469Z,100.00
2022-10-18T01:50:06.476Z,100.00
2022-10-18T01:52:37.035Z,100.00
2022-10-18T01:55:08.871Z,100.00
2022-10-18T01:57:47.259Z,100.00
2022-10-18T02:00:37.527Z,100.00
2022-10-18T02:03:22.277Z,100.00
2022-10-18T02:06:22.148Z,100.00
2022-10-18T02:09:29.876Z,100.00
2022-10-18T02:12:04.274Z,100.00
2022-10-18T02:14:36.081Z,100.00
2022-10-18T02:17:10.377Z,100.00
2022-10-18T02:19:51.391Z,100.00
2022-10-18T02:22:26.964Z,100.00
2022-10-18T02:25:03.560Z,100.00
2022-10-18T02:27:34.379Z,100.00
2022-10-18T02:30:05.129Z,100.00
2022-10-18T02:33:01.908Z,100.00
2022-10-18T02:35:37.708Z,100.00
2022-10-18T02:38:10.727Z,100.00
2022-10-18T02:40:40.965Z,100.00
2022-10-18T02:43:11.140Z,100.00
2022-10-18T02:45:40.545Z,100.00
2022-10-18T02:48:10.994Z,100.00
2022-10-18T02:50:41.386Z,100.00
2022-10-18T02:53:11.809Z,100.00
2022-10-18T02:55:42.120Z,100.00
2022-10-18T02:58:10.777Z,100.00
2022-10-18T03:00:39.920Z,100.00
2022-10-18T03:03:10.248Z,100.00
2022-10-18T03:05:39.211Z,100.00
2022-10-18T03:08:09.431Z,100.00
2022-10-18T03:10:39.048Z,100.00
2022-10-18T03:13:08.351Z,100.00
2022-10-18T03:15:37.659Z,100.00
2022-10-18T03:18:06.857Z,100.00
2022-10-18T03:20:36.166Z,100.00
2022-10-18T03:23:06.198Z,100.00
2022-10-18T03:25:35.578Z,100.00
2022-10-18T03:28:04.861Z,100.00
2022-10-18T03:30:34.044Z,100.00
2022-10-18T03:33:02.738Z,100.00
2022-10-18T03:35:32.666Z,100.00
2022-10-18T03:38:01.731Z,100.00
2022-10-18T03:43:00.997Z,100.00
2022-10-18T03:45:31.446Z,100.00
2022-10-18T03:48:00.739Z,100.00
2022-10-18T03:50:30.472Z,100.00
2022-10-18T03:52:59.749Z,100.00
2022-10-18T03:55:28.795Z,100.00
2022-10-18T03:57:59.082Z,100.00
2022-10-18T04:00:28.154Z,100.00
2022-10-18T04:02:56.905Z,100.00
2022-10-18T04:05:28.070Z,100.00
2022-10-18T04:07:57.370Z,100.00
2022-10-18T04:10:26.461Z,100.00
2022-10-18T04:12:55.271Z,100.00
2022-10-18T04:15:25.074Z,100.00
2022-10-18T04:17:53.608Z,100.00
2022-10-18T04:20:22.758Z,100.00
2022-10-18T04:22:52.526Z,100.00
2022-10-18T04:25:23.065Z,100.00
2022-10-18T04:27:53.070Z,100.00
2022-10-18T04:30:22.468Z,100.00
2022-10-18T04:32:51.271Z,100.00
2022-10-18T04:35:24.881Z,100.00
2022-10-18T04:37:54.482Z,100.00
2022-10-18T04:40:23.874Z,100.00
2022-10-18T04:42:53.300Z,100.00
2022-10-18T04:45:21.954Z,100.00
2022-10-18T04:47:52.084Z,100.00
2022-10-18T04:50:21.173Z,100.00
2022-10-18T04:55:24.245Z,100.00
2022-10-18T04:57:53.759Z,100.00
2022-10-18T05:00:22.925Z,100.00
2022-10-18T05:02:58.278Z,100.00
2022-10-18T05:05:49.594Z,100.00
2022-10-18T05:08:17.405Z,100.00
2022-10-18T05:10:45.999Z,100.00
2022-10-18T05:13:14.666Z,100.00
2022-10-18T05:15:43.265Z,100.00
2022-10-18T05:18:11.883Z,100.00
2022-10-18T05:20:40.831Z,100.00
2022-10-18T05:23:11.462Z,100.00
2022-10-18T05:25:41.738Z,100.00
2022-10-18T05:28:34.449Z,100.00
2022-10-18T05:31:08.346Z,100.00
2022-10-18T05:33:37.435Z,100.00
2022-10-18T05:36:06.855Z,100.00
2022-10-18T05:41:06.059Z,100.00
2022-10-18T05:43:35.431Z,100.00
2022-10-18T05:46:07.206Z,100.00
2022-10-18T05:48:38.328Z,100.00
2022-10-18T05:51:07.234Z,100.00
2022-10-18T05:53:37.540Z,100.00
2022-10-18T05:56:08.009Z,100.00
2022-10-18T05:58:37.128Z,100.00
2022-10-18T06:01:07.002Z,100.00
2022-10-18T06:03:35.744Z,100.00
2022-10-18T06:06:07.368Z,100.00
2022-10-18T06:08:36.857Z,99.80
2022-10-18T06:11:10.437Z,98.90
2022-10-18T06:13:50.600Z,97.50
2022-10-18T06:16:21.601Z,95.86
2022-10-18T06:18:55.654Z,94.60
2022-10-18T06:21:25.640Z,93.02
2022-10-18T06:23:55.344Z,92.32
2022-10-18T06:26:24.673Z,91.36
2022-10-18T06:28:53.314Z,90.73
2022-10-18T06:31:22.302Z,89.05
2022-10-18T06:33:51.113Z,87.67
2022-10-18T06:36:24.366Z,86.90
2022-10-18T06:38:56.119Z,87.18
2022-10-18T06:41:24.754Z,88.35
2022-10-18T06:43:57.399Z,84.17
2022-10-18T06:46:26.859Z,85.50
2022-10-18T06:48:55.746Z,80.60
2022-10-18T06:51:24.300Z,77.46
2022-10-18T06:54:06.197Z,77.32
2022-10-18T06:56:41.372Z,74.74
2022-10-18T06:59:10.360Z,73.72
2022-10-18T07:01:40.880Z,71.58
2022-10-18T07:04:09.773Z,67.64
2022-10-18T07:06:38.873Z,65.89
2022-10-18T07:09:07.875Z,65.35
2022-10-18T07:23:58.886Z,63.27
2022-10-18T07:26:31.518Z,62.24
2022-10-18T07:29:06.853Z,62.28
2022-10-18T07:31:36.510Z,60.85
2022-10-18T07:34:06.521Z,61.17
2022-10-18T07:36:35.437Z,59.28
2022-10-18T07:39:04.816Z,58.30
2022-10-18T07:41:34.351Z,57.33
2022-10-18T07:44:03.755Z,57.38
2022-10-18T07:46:32.390Z,56.26
2022-10-18T07:49:01.003Z,55.91
2022-10-18T07:51:32.947Z,55.59
2022-10-18T07:54:01.918Z,54.77
2022-10-18T07:56:30.640Z,54.20
2022-10-18T07:58:59.045Z,53.91
2022-10-18T08:01:27.657Z,54.46
2022-10-18T08:03:56.587Z,51.73
2022-10-18T08:06:25.297Z,49.79
2022-10-18T08:08:54.102Z,49.05
2022-10-18T08:11:25.144Z,49.09
2022-10-18T08:13:55.021Z,49.29
2022-10-18T08:19:01.378Z,49.58
2022-10-18T08:21:29.916Z,49.06
2022-10-18T08:23:58.512Z,48.73
2022-10-18T08:26:27.047Z,48.83
2022-10-18T08:29:10.415Z,47.98
2022-10-18T08:31:44.430Z,46.09
2022-10-18T08:34:17.304Z,45.80
2022-10-18T08:36:48.268Z,45.57
2022-10-18T08:39:16.896Z,43.95
2022-10-18T08:41:51.318Z,43.81
2022-10-18T08:44:32.436Z,43.35
2022-10-18T08:47:11.153Z,42.04
2022-10-18T08:49:51.102Z,42.42
2022-10-18T08:55:24.847Z,42.03
2022-10-18T08:57:53.939Z,41.55
2022-10-18T09:00:25.369Z,40.53
2022-10-18T09:03:15.156Z,40.30
2022-10-18T09:06:10.371Z,40.09
2022-10-18T09:09:24.659Z,39.14
2022-10-18T09:12:26.462Z,40.89
2022-10-18T09:15:07.321Z,39.84
2022-10-18T09:17:47.892Z,39.07
2022-10-18T09:20:24.540Z,36.50
2022-10-18T09:23:20.506Z,36.56
2022-10-18T09:26:01.318Z,35.71
2022-10-18T09:29:00.378Z,34.43
2022-10-18T09:31:35.007Z,33.82
2022-10-18T09:34:12.751Z,33.56
2022-10-18T09:36:42.200Z,32.81
2022-10-18T09:39:22.841Z,33.04
2022-10-18T09:41:58.370Z,33.65
2022-10-18T09:44:37.045Z,33.64
2022-10-18T09:50:24.468Z,33.47
2022-10-18T09:53:18.502Z,33.47
2022-10-18T09:56:10.557Z,34.08
2022-10-18T09:58:48.687Z,32.79
2022-10-18T10:01:22.584Z,32.69
2022-10-18T10:03:52.079Z,32.43
2022-10-18T10:06:34.950Z,33.48
2022-10-18T10:09:17.857Z,32.14
2022-10-18T10:11:51.822Z,31.96
2022-10-18T10:14:27.556Z,31.87
2022-10-18T10:16:57.644Z,30.04
2022-10-18T10:19:38.375Z,29.89
2022-10-18T10:22:11.007Z,29.09
2022-10-18T10:24:54.092Z,29.51
2022-10-18T10:27:31.614Z,29.34
2022-10-18T10:30:07.126Z,28.14
2022-10-18T10:32:48.114Z,26.21
2022-10-18T10:35:55.812Z,26.50
2022-10-18T10:38:29.423Z,26.41
2022-10-18T10:40:58.938Z,25.48
2022-10-18T10:43:38.241Z,25.60
2022-10-18T10:46:14.902Z,26.35
2022-10-18T10:48:48.301Z,25.26
2022-10-18T10:51:29.115Z,25.64
2022-10-18T10:54:16.743Z,26.96
2022-10-18T10:57:03.384Z,27.35
2022-10-18T10:59:42.721Z,29.08
2022-10-18T11:02:14.283Z,27.84
2022-10-18T11:04:42.952Z,28.52
2022-10-18T11:07:29.283Z,27.46
2022-10-18T11:10:10.039Z,27.63
2022-10-18T11:12:48.172Z,28.93
2022-10-18T11:15:32.825Z,29.41
2022-10-18T11:18:01.492Z,28.88
2022-10-18T11:20:33.180Z,27.53
2022-10-18T11:23:17.698Z,28.62
2022-10-18T11:26:00.744Z,29.37
2022-10-18T11:28:51.207Z,28.43
2022-10-18T11:31:40.123Z,27.88
2022-10-18T11:34:37.398Z,27.48
2022-10-18T11:37:29.083Z,28.39
2022-10-18T11:40:02.287Z,28.06
2022-10-18T11:42:36.702Z,28.40
2022-10-18T11:45:11.620Z,27.80
2022-10-18T11:47:55.919Z,26.92
2022-10-18T11:50:52.596Z,27.27
2022-10-18T11:53:30.717Z,27.55
2022-10-18T11:56:28.491Z,27.70
2022-10-18T11:59:29.225Z,27.84
2022-10-18T12:02:23.789Z,27.37
2022-10-18T12:05:21.977Z,27.42
2022-10-18T12:08:18.018Z,26.59
2022-10-18T12:11:04.623Z,27.41
2022-10-18T12:13:45.163Z,27.61
2022-10-18T12:16:14.751Z,28.26
2022-10-18T12:21:25.713Z,27.87
2022-10-18T12:24:11.803Z,27.71
2022-10-18T12:26:40.504Z,28.30
2022-10-18T12:29:30.266Z,29.60
2022-10-18T12:32:31.646Z,29.03
2022-10-18T12:35:07.082Z,27.38
2022-10-18T12:37:50.937Z,26.37
2022-10-18T12:40:48.709Z,26.06
2022-10-18T12:43:36.655Z,25.40
2022-10-18T12:46:13.104Z,24.78
2022-10-18T12:48:48.984Z,25.46
2022-10-18T12:51:22.124Z,25.84
2022-10-18T12:54:02.636Z,27.07
2022-10-18T12:56:31.470Z,25.96
2022-10-18T12:59:15.385Z,25.98
2022-10-18T13:01:53.113Z,25.76
2022-10-18T13:04:27.410Z,26.03
2022-10-18T13:06:58.764Z,25.87
2022-10-18T13:09:37.971Z,24.83
2022-10-18T13:12:09.841Z,23.41
2022-10-18T13:15:25.394Z,22.67
2022-10-18T13:18:31.358Z,21.56
2022-10-18T13:21:14.662Z,22.06
2022-10-18T13:23:50.810Z,22.40
2022-10-18T13:26:34.480Z,22.09
2022-10-18T13:29:54.141Z,21.74
2022-10-18T13:32:47.164Z,22.44
2022-10-18T13:35:54.877Z,21.89
2022-10-18T13:38:47.364Z,21.56
2022-10-18T13:41:28.327Z,22.44
2022-10-18T13:44:37.801Z,22.95
2022-10-18T13:47:07.255Z,23.11
2022-10-18T13:50:03.910Z,22.89
2022-10-18T13:52:47.943Z,22.35
2022-10-18T13:55:36.277Z,23.44
2022-10-18T13:58:10.593Z,23.90
2022-10-18T14:01:00.952Z,24.71
2022-10-18T14:03:56.081Z,25.08
2022-10-18T14:06:30.157Z,25.22
2022-10-18T14:09:26.289Z,25.11
2022-10-18T14:12:17.413Z,25.63
2022-10-18T14:14:54.256Z,26.48
2022-10-18T14:17:45.629Z,26.40
2022-10-18T14:20:15.153Z,25.17
2022-10-18T14:22:52.432Z,25.26
2022-10-18T14:25:21.244Z,26.86
2022-10-18T14:28:02.592Z,26.86
2022-10-18T14:30:31.312Z,27.98
2022-10-18T14:33:00.024Z,29.45
2022-10-18T14:35:33.478Z,28.93
2022-10-18T14:38:03.291Z,29.77
2022-10-18T14:40:34.143Z,31.31
2022-10-18T14:43:10.697Z,33.36
2022-10-18T14:45:40.699Z,35.34
2022-10-18T14:48:22.267Z,36.83
2022-10-18T14:50:59.546Z,38.25
2022-10-18T14:53:34.878Z,40.02
2022-10-18T14:56:04.824Z,41.33
2022-10-18T14:58:36.614Z,42.95
2022-10-18T15:01:05.644Z,44.10
2022-10-18T15:03:36.322Z,45.01
2022-10-18T15:06:06.145Z,46.73
2022-10-18T15:08:40.910Z,47.50
2022-10-18T15:11:14.232Z,47.91
2022-10-18T15:13:56.968Z,48.36
2022-10-18T15:16:30.817Z,48.70
2022-10-18T15:19:21.997Z,49.64
2022-10-18T15:22:08.009Z,49.68
2022-10-18T15:24:42.383Z,50.91
2022-10-18T15:27:26.523Z,51.27
2022-10-18T15:29:55.626Z,52.95
2022-10-18T15:32:31.909Z,53.81
2022-10-18T15:35:10.435Z,55.59
2022-10-18T15:37:44.949Z,57.05
2022-10-18T15:40:34.363Z,55.89
2022-10-18T15:43:06.716Z,56.81
2022-10-18T15:45:38.168Z,57.20
2022-10-18T15:48:06.645Z,57.28
2022-10-18T15:50:52.090Z,55.71
2022-10-18T15:53:21.138Z,52.46
2022-10-18T15:55:55.658Z,52.46
2022-10-18T15:58:44.439Z,52.55
2022-10-18T16:01:22.098Z,55.45
2022-10-18T16:03:52.299Z,60.93
2022-10-18T16:06:20.740Z,62.72
2022-10-18T16:08:52.040Z,63.62
2022-10-18T16:11:24.018Z,62.62
2022-10-18T16:13:56.453Z,64.33
2022-10-18T16:16:29.656Z,64.33
2022-10-18T16:18:58.309Z,65.39
2022-10-18T16:21:39.874Z,64.56
2022-10-18T16:24:08.669Z,66.34
2022-10-18T16:26:38.289Z,64.87
2022-10-18T16:29:06.955Z,66.89
2022-10-18T16:31:35.519Z,67.07
2022-10-18T16:34:04.753Z,64.86
2022-10-18T16:36:34.528Z,63.92
2022-10-18T16:39:09.391Z,63.75
2022-10-18T16:41:38.350Z,60.36
2022-10-18T16:44:06.700Z,61.60
2022-10-18T16:46:35.823Z,63.17
2022-10-18T16:49:05.331Z,66.27
2022-10-18T16:51:34.013Z,67.41
2022-10-18T16:54:02.331Z,68.63
2022-10-18T16:56:32.651Z,70.42
2022-10-18T16:59:02.467Z,70.90
2022-10-18T17:01:30.828Z,71.77
2022-10-18T17:03:59.212Z,71.63
2022-10-18T17:06:29.886Z,69.95
2022-10-18T17:08:58.507Z,69.38
2022-10-18T17:11:28.587Z,66.80
2022-10-18T17:13:57.078Z,70.00
2022-10-18T17:16:32.239Z,67.70
2022-10-18T17:19:04.201Z,67.38
2022-10-18T17:21:33.807Z,67.85
2022-10-18T17:24:03.423Z,69.42
2022-10-18T17:26:32.553Z,73.41
2022-10-18T17:29:06.401Z,77.68
2022-10-18T17:31:35.989Z,78.81
2022-10-18T17:34:04.812Z,78.27
2022-10-18T17:36:33.888Z,79.03
2022-10-18T17:39:02.460Z,79.82
2022-10-18T17:41:30.847Z,80.02
2022-10-18T17:43:59.140Z,77.21
2022-10-18T17:46:28.101Z,75.91
2022-10-18T17:48:56.692Z,79.63
2022-10-18T17:51:24.998Z,79.90
2022-10-18T17:53:54.094Z,79.60
2022-10-18T17:56:22.582Z,79.81
2022-10-18T17:58:51.765Z,79.36
2022-10-18T18:01:23.391Z,79.01
2022-10-18T18:03:58.176Z,81.40
2022-10-18T18:06:34.139Z,82.14
2022-10-18T18:09:14.466Z,82.52
2022-10-18T18:11:44.890Z,82.67
2022-10-18T18:14:13.577Z,82.00
2022-10-18T18:16:47.584Z,82.11
2022-10-18T18:19:19.196Z,82.65
2022-10-18T18:21:48.437Z,82.49
2022-10-18T18:24:18.046Z,83.42
2022-10-18T18:26:46.391Z,83.75
2022-10-18T18:29:14.777Z,82.78
2022-10-18T18:31:44.042Z,80.47
2022-10-18T18:34:14.383Z,77.07
2022-10-18T18:36:44.927Z,79.22
2022-10-18T18:39:22.184Z,84.04
2022-10-18T18:41:53.097Z,84.97
2022-10-18T18:44:22.890Z,85.18
2022-10-18T18:46:51.783Z,85.13
2022-10-18T18:49:20.435Z,79.04
2022-10-18T18:51:48.724Z,77.94
2022-10-18T18:54:19.827Z,82.78
2022-10-18T18:56:52.142Z,81.92
2022-10-18T18:59:24.017Z,77.63
2022-10-18T19:01:52.962Z,78.70
2022-10-18T19:04:21.689Z,78.33
2022-10-18T19:06:50.106Z,78.13
2022-10-18T19:09:20.732Z,79.42
2022-10-18T19:11:52.723Z,79.48
2022-10-18T19:16:59.472Z,81.82
2022-10-18T19:19:30.241Z,82.30
2022-10-18T19:22:01.322Z,84.20
2022-10-18T19:24:30.572Z,87.55
2022-10-18T19:27:02.492Z,89.86
2022-10-18T19:29:33.282Z,89.99
2022-10-18T19:32:04.867Z,90.39
2022-10-18T19:34:34.819Z,90.42
2022-10-18T19:37:03.999Z,89.08
2022-10-18T19:39:35.038Z,88.13
2022-10-18T19:42:09.402Z,91.90
2022-10-18T19:44:38.009Z,92.63
2022-10-18T19:47:09.185Z,92.18
2022-10-18T19:49:39.038Z,92.84
2022-10-18T19:52:07.585Z,92.38
2022-10-18T19:54:36.084Z,92.48
2022-10-18T19:57:04.806Z,92.50
2022-10-18T19:59:34.518Z,93.14
2022-10-18T20:02:04.934Z,91.85
2022-10-18T20:04:35.459Z,91.71
2022-10-18T20:07:04.169Z,90.72
2022-10-18T20:09:32.817Z,91.94
2022-10-18T20:12:01.393Z,92.59
2022-10-18T20:14:30.061Z,92.38
2022-10-18T20:16:58.548Z,92.91
2022-10-18T20:19:27.329Z,92.24
2022-10-18T20:21:57.890Z,90.70
2022-10-18T20:24:26.430Z,91.62
2022-10-18T20:26:54.968Z,93.80
2022-10-18T20:29:25.738Z,93.95
2022-10-18T20:31:55.962Z,93.91
2022-10-18T20:34:26.313Z,94.78
2022-10-18T20:36:55.590Z,94.40
2022-10-18T20:39:24.303Z,93.86
2022-10-18T20:41:52.766Z,93.77
2022-10-18T20:44:22.851Z,93.28
2022-10-18T20:46:51.579Z,94.89
2022-10-18T20:49:20.097Z,95.11
2022-10-18T20:51:49.045Z,94.77
2022-10-18T20:54:18.062Z,95.00
2022-10-18T20:56:46.598Z,95.09
2022-10-18T20:59:15.202Z,96.14
2022-10-18T21:01:43.833Z,95.77
2022-10-18T21:04:12.335Z,95.42
2022-10-18T21:06:43.877Z,96.14
2022-10-18T21:09:18.442Z,96.75
2022-10-18T21:11:51.776Z,95.78
2022-10-18T21:14:22.876Z,97.55
2022-10-18T21:16:53.407Z,97.28
2022-10-18T21:19:29.127Z,97.20
2022-10-18T21:22:01.030Z,97.93
2022-10-18T21:24:31.451Z,99.59
2022-10-18T21:27:00.595Z,98.01
2022-10-18T21:29:31.175Z,98.82
2022-10-18T21:32:01.289Z,98.85
2022-10-18T21:34:31.105Z,97.47
2022-10-18T21:37:00.714Z,97.90
2022-10-18T21:39:30.322Z,97.35
2022-10-18T21:41:59.022Z,96.55
2022-10-18T21:44:27.683Z,98.29
2022-10-18T21:46:57.306Z,97.02
2022-10-18T21:49:31.561Z,97.37
2022-10-18T21:52:03.962Z,98.37
2022-10-18T21:54:33.008Z,98.99
2022-10-18T21:57:02.022Z,97.07
2022-10-18T21:59:30.874Z,93.91
2022-10-18T22:02:01.631Z,95.70
2022-10-18T22:04:35.840Z,99.05
2022-10-18T22:07:05.223Z,95.13
2022-10-18T22:09:34.387Z,94.80
2022-10-18T22:12:03.163Z,94.76
2022-10-18T22:14:32.516Z,94.99
2022-10-18T22:17:01.551Z,93.85
2022-10-18T22:19:30.351Z,93.47
2022-10-18T22:21:59.262Z,93.36
2022-10-18T22:24:28.111Z,93.30
2022-10-18T22:26:58.161Z,93.48
2022-10-18T22:29:27.213Z,94.58
2022-10-18T22:31:56.493Z,95.28
2022-10-18T22:34:28.082Z,94.83
2022-10-18T22:36:57.405Z,94.82
2022-10-18T22:39:27.256Z,95.72
2022-10-18T22:41:57.817Z,95.96
2022-10-18T22:44:27.193Z,97.55
2022-10-18T22:46:56.314Z,97.40
2022-10-18T22:49:25.697Z,96.80
2022-10-18T22:51:54.928Z,97.59
2022-10-18T22:54:23.645Z,97.96
2022-10-18T22:56:52.741Z,98.31
2022-10-18T22:59:21.782Z,99.03
2022-10-18T23:01:50.683Z,99.95
2022-10-18T23:04:20.477Z,99.97
2022-10-18T23:06:49.816Z,99.97
2022-10-18T23:09:19.989Z,99.96
2022-10-18T23:11:51.982Z,100.00
2022-10-18T23:14:21.681Z,100.00
2022-10-18T23:16:51.458Z,100.00
2022-10-18T23:19:20.832Z,99.63
2022-10-18T23:21:50.562Z,96.91
2022-10-18T23:24:21.214Z,99.58
2022-10-18T23:26:50.993Z,99.80
2022-10-18T23:29:19.835Z,98.98
2022-10-18T23:31:49.141Z,99.77
2022-10-18T23:34:18.215Z,99.47
2022-10-18T23:36:48.049Z,100.00
2022-10-18T23:39:19.763Z,100.00
2022-10-18T23:41:51.987Z,100.00
2022-10-18T23:44:23.228Z,100.00
2022-10-18T23:46:53.587Z,99.81
2022-10-18T23:49:23.863Z,99.25
2022-10-18T23:51:54.450Z,100.00
2022-10-18T23:54:24.045Z,100.00
2022-10-18T23:56:53.358Z,100.00
2022-10-18T23:59:22.685Z,100.00
